Time;durP1;ratioP1;P1;durP2;ratioP2;P2;SDS_P1;SDS_P2;PMS_P1;PMS_P2;Temp;Humidity;BMP_temperature;BMP_pressure;BME280_temperature;BME280_humidity;BME280_pressure;Samples;Min_cycle;Max_cycle;Signal;HPM_P1;HPM_P2
2022/02/28 00:01:28;;;;;;;12.82;4.70;;;;;;;;;;5063996;28;20135;-63
2022/02/28 00:03:56;;;;;;;12.20;5.13;;;;;;;;;;5046207;28;20081;-63
2022/02/28 00:06:22;;;;;;;14.55;4.85;;;;;;;;;;5044388;28;20045;-63
2022/02/28 00:08:49;;;;;;;14.98;5.30;;;;;;;;;;5067372;28;20126;-63
2022/02/28 00:11:15;;;;;;;10.95;4.75;;;;;;;;;;5062130;28;20041;-63
2022/02/28 00:13:41;;;;;;;10.63;4.70;;;;;;;;;;5086446;28;20045;-63
2022/02/28 00:16:08;;;;;;;11.77;4.88;;;;;;;;;;5064719;28;20139;-63
2022/02/28 00:18:34;;;;;;;10.90;5.03;;;;;;;;;;5069526;28;20146;-63
2022/02/28 00:21:01;;;;;;;12.95;4.53;;;;;;;;;;5080532;28;20072;-63
2022/02/28 00:23:27;;;;;;;12.25;4.63;;;;;;;;;;5068455;28;20102;-63
2022/02/28 00:25:54;;;;;;;10.00;5.10;;;;;;;;;;5081998;28;20076;-63
2022/02/28 00:28:20;;;;;;;15.10;5.85;;;;;;;;;;5083725;28;20059;-63
2022/02/28 00:30:46;;;;;;;11.48;5.03;;;;;;;;;;5069526;28;20052;-64
2022/02/28 00:33:12;;;;;;;10.05;4.63;;;;;;;;;;5085866;28;20068;-63
2022/02/28 00:35:39;;;;;;;9.90;5.05;;;;;;;;;;5069113;28;20051;-63
2022/02/28 00:38:05;;;;;;;9.82;4.95;;;;;;;;;;5067497;28;20052;-63
2022/02/28 00:40:32;;;;;;;14.75;5.00;;;;;;;;;;5070427;28;20490;-63
2022/02/28 00:42:58;;;;;;;13.18;5.18;;;;;;;;;;5086839;28;20060;-63
2022/02/28 00:45:24;;;;;;;10.20;4.55;;;;;;;;;;5070940;28;20050;-63
2022/02/28 00:47:50;;;;;;;12.50;5.20;;;;;;;;;;5072303;28;20044;-63
2022/02/28 00:50:17;;;;;;;9.55;5.35;;;;;;;;;;5082399;28;20044;-63
2022/02/28 00:52:43;;;;;;;17.17;6.00;;;;;;;;;;5086570;28;20056;-63
2022/02/28 00:55:10;;;;;;;12.02;5.80;;;;;;;;;;5067087;28;20068;-64
2022/02/28 00:57:36;;;;;;;14.20;6.20;;;;;;;;;;5070681;28;20045;-63
2022/02/28 01:00:10;;;;;;;14.95;5.10;;;;;;;;;;5048965;28;20123;-63
2022/02/28 01:02:36;;;;;;;15.00;5.25;;;;;;;;;;5068038;28;20037;-63
2022/02/28 01:05:03;;;;;;;12.98;5.32;;;;;;;;;;5069299;28;20102;-63
2022/02/28 01:07:30;;;;;;;14.27;5.95;;;;;;;;;;5062347;28;20078;-63
2022/02/28 01:09:56;;;;;;;16.60;5.25;;;;;;;;;;5044285;28;20053;-62
2022/02/28 01:12:22;;;;;;;11.20;5.35;;;;;;;;;;5041586;28;20052;-63
2022/02/28 01:14:48;;;;;;;15.77;5.82;;;;;;;;;;5076771;28;20048;-63
2022/02/28 01:17:15;;;;;;;18.02;5.55;;;;;;;;;;5068521;28;20044;-63
2022/02/28 01:19:41;;;;;;;14.30;6.00;;;;;;;;;;5068586;28;20450;-63
2022/02/28 01:22:11;;;;;;;13.38;5.20;;;;;;;;;;5064013;28;20126;-63
2022/02/28 01:24:38;;;;;;;18.77;6.20;;;;;;;;;;5067624;28;20164;-63
2022/02/28 01:27:04;;;;;;;12.90;5.07;;;;;;;;;;5068067;28;20048;-63
2022/02/28 01:29:31;;;;;;;10.00;5.10;;;;;;;;;;5068641;28;20037;-63
2022/02/28 01:31:57;;;;;;;18.70;5.88;;;;;;;;;;5083832;28;20047;-63
2022/02/28 01:34:24;;;;;;;14.80;5.55;;;;;;;;;;5065871;28;20039;-63
2022/02/28 01:36:50;;;;;;;14.05;5.60;;;;;;;;;;5066748;28;20044;-63
2022/02/28 01:39:16;;;;;;;11.40;4.88;;;;;;;;;;5052188;28;20045;-63
2022/02/28 01:41:43;;;;;;;10.73;4.50;;;;;;;;;;5084162;28;20045;-63
2022/02/28 01:44:09;;;;;;;13.52;4.82;;;;;;;;;;5078993;28;20045;-63
2022/02/28 01:46:37;;;;;;;9.75;4.72;;;;;;;;;;5093190;28;20048;-63
2022/02/28 01:49:03;;;;;;;13.93;5.78;;;;;;;;;;5067615;28;20075;-64
2022/02/28 01:51:29;;;;;;;13.00;4.75;;;;;;;;;;5064474;28;20044;-63
2022/02/28 01:53:55;;;;;;;14.02;5.43;;;;;;;;;;5081812;28;20251;-63
2022/02/28 01:56:22;;;;;;;12.07;5.57;;;;;;;;;;5059102;28;20064;-63
2022/02/28 01:58:48;;;;;;;12.80;5.20;;;;;;;;;;5080093;28;20447;-63
2022/02/28 02:01:14;;;;;;;10.65;4.97;;;;;;;;;;5048338;28;20468;-63
2022/02/28 02:03:40;;;;;;;10.52;4.70;;;;;;;;;;5082132;28;20037;-63
2022/02/28 02:06:09;;;;;;;10.85;5.00;;;;;;;;;;5066383;28;20059;-63
2022/02/28 02:08:36;;;;;;;15.63;5.35;;;;;;;;;;5067840;28;20151;-63
2022/02/28 02:11:02;;;;;;;10.45;5.38;;;;;;;;;;5065525;28;20119;-63
2022/02/28 02:13:31;;;;;;;13.32;5.88;;;;;;;;;;5067754;28;20052;-63
2022/02/28 02:15:58;;;;;;;12.18;5.03;;;;;;;;;;5021225;28;20040;-63
2022/02/28 02:18:24;;;;;;;12.13;4.68;;;;;;;;;;5057636;28;20124;-63
2022/02/28 02:20:50;;;;;;;11.77;5.45;;;;;;;;;;5059807;28;20044;-63
2022/02/28 02:23:17;;;;;;;15.35;5.50;;;;;;;;;;5043898;28;20032;-63
2022/02/28 02:25:43;;;;;;;11.00;5.07;;;;;;;;;;5082917;28;20044;-63
2022/02/28 02:28:14;;;;;;;15.50;5.65;;;;;;;;;;5066918;28;20041;-63
2022/02/28 02:30:41;;;;;;;14.63;5.80;;;;;;;;;;5065432;28;20084;-63
2022/02/28 02:33:07;;;;;;;15.45;6.00;;;;;;;;;;5048592;28;20040;-63
2022/02/28 02:35:33;;;;;;;12.27;5.00;;;;;;;;;;5069937;28;20036;-63
2022/02/28 02:38:00;;;;;;;13.05;5.40;;;;;;;;;;5068590;28;20113;-63
2022/02/28 02:40:26;;;;;;;12.30;5.35;;;;;;;;;;5085025;28;20067;-63
2022/02/28 02:42:52;;;;;;;10.52;4.85;;;;;;;;;;5085269;28;20079;-63
2022/02/28 02:45:18;;;;;;;10.30;5.47;;;;;;;;;;5052230;28;20084;-63
2022/02/28 02:47:44;;;;;;;10.80;5.28;;;;;;;;;;5069234;28;20041;-63
2022/02/28 02:50:11;;;;;;;19.38;6.78;;;;;;;;;;5066051;28;20067;-63
2022/02/28 02:52:37;;;;;;;11.00;5.20;;;;;;;;;;5085123;28;20498;-63
2022/02/28 02:55:04;;;;;;;13.25;5.57;;;;;;;;;;5071118;28;20386;-63
2022/02/28 02:57:30;;;;;;;12.55;5.38;;;;;;;;;;5071359;28;20032;-63
2022/02/28 02:59:56;;;;;;;16.27;6.03;;;;;;;;;;5069970;28;20364;-63
2022/02/28 03:02:22;;;;;;;13.40;5.65;;;;;;;;;;5073251;28;20609;-63
2022/02/28 03:04:48;;;;;;;11.80;5.00;;;;;;;;;;5070913;28;20048;-63
2022/02/28 03:07:17;;;;;;;14.48;5.30;;;;;;;;;;5050822;28;20119;-63
2022/02/28 03:09:44;;;;;;;14.18;5.80;;;;;;;;;;5070760;28;20130;-63
2022/02/28 03:12:10;;;;;;;11.10;5.18;;;;;;;;;;5066959;28;20037;-63
2022/02/28 03:14:36;;;;;;;17.67;6.63;;;;;;;;;;5072007;28;20123;-63
2022/02/28 03:17:02;;;;;;;10.98;5.70;;;;;;;;;;5072507;28;20154;-63
2022/02/28 03:19:29;;;;;;;14.85;5.70;;;;;;;;;;5071680;28;20044;-63
2022/02/28 03:21:55;;;;;;;17.08;6.65;;;;;;;;;;5069959;28;20055;-64
2022/02/28 03:24:21;;;;;;;14.30;5.45;;;;;;;;;;5076340;28;20052;-63
2022/02/28 03:26:47;;;;;;;14.63;6.25;;;;;;;;;;5064075;28;20036;-63
2022/02/28 03:29:13;;;;;;;18.60;6.00;;;;;;;;;;5063452;28;20120;-62
2022/02/28 03:31:39;;;;;;;14.88;7.60;;;;;;;;;;5081457;28;20113;-63
2022/02/28 03:34:05;;;;;;;12.85;6.45;;;;;;;;;;5069687;28;20198;-63
2022/02/28 03:36:32;;;;;;;12.43;5.45;;;;;;;;;;5072278;28;20040;-63
2022/02/28 03:38:58;;;;;;;11.82;5.13;;;;;;;;;;5069730;28;20048;-63
2022/02/28 03:41:24;;;;;;;16.05;5.93;;;;;;;;;;5061428;28;20087;-62
2022/02/28 03:43:50;;;;;;;15.38;5.82;;;;;;;;;;5049263;28;20045;-63
2022/02/28 03:46:16;;;;;;;13.20;5.63;;;;;;;;;;5066365;28;20037;-62
2022/02/28 03:48:43;;;;;;;15.48;6.18;;;;;;;;;;5082187;28;20048;-63
2022/02/28 03:51:09;;;;;;;11.90;6.50;;;;;;;;;;5067866;28;20080;-62
2022/02/28 03:53:36;;;;;;;12.35;5.47;;;;;;;;;;5065083;28;20044;-63
2022/02/28 03:56:02;;;;;;;10.85;5.70;;;;;;;;;;5068983;28;20040;-63
2022/02/28 03:58:28;;;;;;;13.48;6.80;;;;;;;;;;5051963;28;20044;-63
2022/02/28 04:00:54;;;;;;;12.85;6.13;;;;;;;;;;5070411;28;20457;-63
2022/02/28 04:03:22;;;;;;;16.80;7.10;;;;;;;;;;5053407;28;20056;-63
2022/02/28 04:05:49;;;;;;;12.60;6.10;;;;;;;;;;5050541;28;20103;-63
2022/02/28 04:08:15;;;;;;;14.93;6.07;;;;;;;;;;5069478;28;20503;-63
2022/02/28 04:10:41;;;;;;;12.13;6.28;;;;;;;;;;5066077;28;20036;-63
2022/02/28 04:13:07;;;;;;;10.88;5.95;;;;;;;;;;5066678;28;20041;-63
2022/02/28 04:15:33;;;;;;;13.48;6.28;;;;;;;;;;5049994;28;20515;-63
2022/02/28 04:17:59;;;;;;;14.00;6.40;;;;;;;;;;5071469;28;20044;-63
2022/02/28 04:20:26;;;;;;;12.63;6.72;;;;;;;;;;5067977;28;20512;-63
2022/02/28 04:22:52;;;;;;;15.18;7.47;;;;;;;;;;5062245;28;20404;-63
2022/02/28 04:25:18;;;;;;;19.35;6.90;;;;;;;;;;5070188;28;20040;-63
2022/02/28 04:27:44;;;;;;;11.75;5.75;;;;;;;;;;5053688;28;20041;-63
2022/02/28 04:30:11;;;;;;;12.80;6.13;;;;;;;;;;5049276;28;20101;-63
2022/02/28 04:32:37;;;;;;;13.82;6.40;;;;;;;;;;5056556;28;20033;-63
2022/02/28 04:35:03;;;;;;;12.38;6.38;;;;;;;;;;5079228;28;20052;-63
2022/02/28 04:37:30;;;;;;;13.35;6.35;;;;;;;;;;5083298;28;20055;-63
2022/02/28 04:39:56;;;;;;;15.00;6.82;;;;;;;;;;5047070;28;21841;-63
2022/02/28 04:42:22;;;;;;;14.15;6.38;;;;;;;;;;5050641;28;20064;-63
2022/02/28 04:44:48;;;;;;;17.98;6.25;;;;;;;;;;5045954;28;20076;-63
2022/02/28 04:47:15;;;;;;;13.07;6.38;;;;;;;;;;5083269;28;20520;-63
2022/02/28 04:49:41;;;;;;;13.73;7.05;;;;;;;;;;5066362;28;20057;-63
2022/02/28 04:52:07;;;;;;;13.60;6.45;;;;;;;;;;5049728;28;20396;-62
2022/02/28 04:54:33;;;;;;;15.75;6.57;;;;;;;;;;5065756;28;20193;-63
2022/02/28 04:56:59;;;;;;;16.40;6.38;;;;;;;;;;5067961;28;20048;-63
2022/02/28 04:59:26;;;;;;;12.43;6.13;;;;;;;;;;5084387;28;20044;-63
2022/02/28 05:01:52;;;;;;;16.67;6.88;;;;;;;;;;5068269;28;20086;-63
2022/02/28 05:04:18;;;;;;;13.98;6.00;;;;;;;;;;5079907;28;20051;-63
2022/02/28 05:06:44;;;;;;;14.63;6.93;;;;;;;;;;5066511;28;20051;-63
2022/02/28 05:09:10;;;;;;;13.65;6.43;;;;;;;;;;5066113;28;20049;-63
2022/02/28 05:11:36;;;;;;;14.18;6.95;;;;;;;;;;5078283;28;20055;-63
2022/02/28 05:14:03;;;;;;;13.23;6.13;;;;;;;;;;5084462;28;20044;-63
2022/02/28 05:16:29;;;;;;;16.80;6.72;;;;;;;;;;5069030;28;20044;-63
2022/02/28 05:18:55;;;;;;;14.40;6.20;;;;;;;;;;5065709;28;20036;-63
2022/02/28 05:21:21;;;;;;;14.77;6.65;;;;;;;;;;5068257;28;20040;-63
2022/02/28 05:23:47;;;;;;;22.65;7.00;;;;;;;;;;5066490;28;20048;-63
2022/02/28 05:26:13;;;;;;;15.68;7.45;;;;;;;;;;5063135;28;20037;-63
2022/02/28 05:28:39;;;;;;;14.25;6.75;;;;;;;;;;5067188;28;20045;-63
2022/02/28 05:31:05;;;;;;;16.30;7.63;;;;;;;;;;5067984;28;20045;-63
2022/02/28 05:33:32;;;;;;;12.55;6.15;;;;;;;;;;5065604;28;20091;-63
2022/02/28 05:35:58;;;;;;;14.45;6.72;;;;;;;;;;5041298;28;20048;-63
2022/02/28 05:38:24;;;;;;;14.77;7.07;;;;;;;;;;5059315;28;20033;-63
2022/02/28 05:40:50;;;;;;;16.02;7.00;;;;;;;;;;5060881;28;20399;-63
2022/02/28 05:43:16;;;;;;;13.40;6.10;;;;;;;;;;5051134;28;20049;-63
2022/02/28 05:45:43;;;;;;;12.93;6.50;;;;;;;;;;5068927;28;20113;-63
2022/02/28 05:48:09;;;;;;;16.58;7.10;;;;;;;;;;5069325;28;20074;-63
2022/02/28 05:50:35;;;;;;;13.00;7.03;;;;;;;;;;5067255;28;20130;-63
2022/02/28 05:53:01;;;;;;;14.82;6.85;;;;;;;;;;5062410;28;20056;-63
2022/02/28 05:55:29;;;;;;;14.23;7.10;;;;;;;;;;5039632;28;20172;-63
2022/02/28 05:57:55;;;;;;;11.65;5.95;;;;;;;;;;5062539;28;20055;-63
2022/02/28 06:00:21;;;;;;;13.10;6.72;;;;;;;;;;5059853;28;20045;-63
2022/02/28 06:02:49;;;;;;;11.98;6.45;;;;;;;;;;5050438;28;20049;-63
2022/02/28 06:05:15;;;;;;;14.23;7.25;;;;;;;;;;5044247;28;20496;-63
2022/02/28 06:07:42;;;;;;;16.30;8.45;;;;;;;;;;5043460;28;20125;-63
2022/02/28 06:10:09;;;;;;;12.98;6.60;;;;;;;;;;5034563;28;20091;-63
2022/02/28 06:12:35;;;;;;;15.35;7.50;;;;;;;;;;5029554;28;20449;-63
2022/02/28 06:15:01;;;;;;;14.68;6.68;;;;;;;;;;5049078;28;20160;-63
2022/02/28 06:17:27;;;;;;;15.30;7.13;;;;;;;;;;5050996;28;20049;-63
2022/02/28 06:19:53;;;;;;;10.88;6.50;;;;;;;;;;5050829;28;20044;-63
2022/02/28 06:22:21;;;;;;;19.13;8.40;;;;;;;;;;5047786;28;20492;-63
2022/02/28 06:24:47;;;;;;;14.15;6.28;;;;;;;;;;5049517;28;20134;-62
2022/02/28 06:27:13;;;;;;;13.05;7.22;;;;;;;;;;5051198;28;20037;-63
2022/02/28 06:29:40;;;;;;;15.50;6.68;;;;;;;;;;5031787;28;20098;-63
2022/02/28 06:32:06;;;;;;;14.77;7.18;;;;;;;;;;5014140;28;20124;-63
2022/02/28 06:34:32;;;;;;;13.15;6.53;;;;;;;;;;5045580;28;20037;-62
2022/02/28 06:36:59;;;;;;;16.35;6.78;;;;;;;;;;5047267;28;20056;-63
2022/02/28 06:39:26;;;;;;;12.40;7.25;;;;;;;;;;5032332;28;20243;-63
2022/02/28 06:41:52;;;;;;;12.20;6.28;;;;;;;;;;5051590;28;20576;-63
2022/02/28 06:44:19;;;;;;;16.33;7.43;;;;;;;;;;5049456;28;20045;-63
2022/02/28 06:46:45;;;;;;;16.05;6.85;;;;;;;;;;5035389;28;20426;-64
2022/02/28 06:49:11;;;;;;;12.02;7.03;;;;;;;;;;5052063;28;20049;-64
2022/02/28 06:51:37;;;;;;;11.77;6.43;;;;;;;;;;5046844;28;20121;-63
2022/02/28 06:54:03;;;;;;;15.88;7.97;;;;;;;;;;5050572;28;20052;-63
2022/02/28 06:56:30;;;;;;;12.63;7.25;;;;;;;;;;5064766;28;20122;-63
2022/02/28 06:58:56;;;;;;;11.88;6.70;;;;;;;;;;5052043;28;20132;-63
2022/02/28 07:01:22;;;;;;;12.45;6.95;;;;;;;;;;5076035;28;20045;-63
2022/02/28 07:03:48;;;;;;;16.10;7.03;;;;;;;;;;5069523;28;20136;-63
2022/02/28 07:06:20;;;;;;;13.20;6.75;;;;;;;;;;5068651;28;20048;-63
2022/02/28 07:08:47;;;;;;;15.80;7.47;;;;;;;;;;5079674;28;20155;-63
2022/02/28 07:11:14;;;;;;;12.32;6.57;;;;;;;;;;5065139;28;20041;-63
2022/02/28 07:13:40;;;;;;;14.00;6.88;;;;;;;;;;5047653;28;20365;-63
2022/02/28 07:16:07;;;;;;;16.02;8.20;;;;;;;;;;5061840;28;20041;-64
2022/02/28 07:18:33;;;;;;;14.93;7.75;;;;;;;;;;5062228;28;20170;-63
2022/02/28 07:20:59;;;;;;;13.57;7.22;;;;;;;;;;5063702;28;20127;-64
2022/02/28 07:23:25;;;;;;;17.35;8.05;;;;;;;;;;5062709;28;20064;-63
2022/02/28 07:25:51;;;;;;;16.30;7.95;;;;;;;;;;5064209;28;20052;-63
2022/02/28 07:28:18;;;;;;;15.85;8.00;;;;;;;;;;5044541;28;20148;-63
2022/02/28 07:30:44;;;;;;;16.17;7.75;;;;;;;;;;5064976;28;20044;-63
2022/02/28 07:33:10;;;;;;;12.93;7.60;;;;;;;;;;5069372;28;20176;-63
2022/02/28 07:35:36;;;;;;;14.15;7.40;;;;;;;;;;5069766;28;20044;-64
2022/02/28 07:38:02;;;;;;;16.40;7.80;;;;;;;;;;5066119;28;20045;-63
2022/02/28 07:40:29;;;;;;;15.45;7.53;;;;;;;;;;5043161;28;20054;-64
2022/02/28 07:42:55;;;;;;;14.05;8.15;;;;;;;;;;5049688;28;20080;-63
2022/02/28 07:45:21;;;;;;;14.82;8.32;;;;;;;;;;5041540;28;20120;-67
2022/02/28 07:47:47;;;;;;;15.27;7.90;;;;;;;;;;5062933;28;20079;-63
2022/02/28 07:50:14;;;;;;;13.70;7.22;;;;;;;;;;5068365;28;20090;-63
2022/02/28 07:52:40;;;;;;;13.13;7.65;;;;;;;;;;5066765;28;20051;-63
2022/02/28 07:55:06;;;;;;;15.07;8.10;;;;;;;;;;5075903;28;20160;-63
2022/02/28 07:57:32;;;;;;;12.52;7.68;;;;;;;;;;5074451;28;20065;-63
2022/02/28 07:59:59;;;;;;;15.63;8.02;;;;;;;;;;5073957;28;20078;-63
2022/02/28 08:02:26;;;;;;;14.43;7.35;;;;;;;;;;5072886;28;20081;-63
2022/02/28 08:04:52;;;;;;;13.07;8.07;;;;;;;;;;5075370;28;20488;-63
2022/02/28 08:07:18;;;;;;;16.60;7.80;;;;;;;;;;5062685;28;20423;-63
2022/02/28 08:09:44;;;;;;;18.92;9.02;;;;;;;;;;5046020;28;20073;-64
2022/02/28 08:12:11;;;;;;;14.23;7.22;;;;;;;;;;5063787;28;20127;-63
2022/02/28 08:14:39;;;;;;;18.88;8.55;;;;;;;;;;5067420;28;20523;-65
2022/02/28 08:17:05;;;;;;;16.17;8.38;;;;;;;;;;5085251;28;20048;-66
2022/02/28 08:19:31;;;;;;;13.40;7.78;;;;;;;;;;5081117;28;20067;-63
2022/02/28 08:21:57;;;;;;;16.80;8.68;;;;;;;;;;5068353;28;20528;-63
2022/02/28 08:24:23;;;;;;;16.00;8.88;;;;;;;;;;5068010;28;20037;-63
2022/02/28 08:26:50;;;;;;;13.35;7.82;;;;;;;;;;5067113;28;20379;-63
2022/02/28 08:29:16;;;;;;;13.25;8.18;;;;;;;;;;5080259;28;20044;-63
2022/02/28 08:31:42;;;;;;;17.00;7.95;;;;;;;;;;5078952;28;20063;-63
2022/02/28 08:34:09;;;;;;;15.25;7.85;;;;;;;;;;5079322;28;20044;-63
2022/02/28 08:36:35;;;;;;;15.30;9.05;;;;;;;;;;5077816;28;20143;-63
2022/02/28 08:39:01;;;;;;;16.40;9.00;;;;;;;;;;5068859;28;20064;-64
2022/02/28 08:41:28;;;;;;;14.20;7.47;;;;;;;;;;5067762;28;20037;-63
2022/02/28 08:43:54;;;;;;;16.15;8.63;;;;;;;;;;5067442;28;20048;-63
2022/02/28 08:46:20;;;;;;;12.85;7.25;;;;;;;;;;5058795;28;20487;-64
2022/02/28 08:48:46;;;;;;;15.77;8.10;;;;;;;;;;5065764;28;20105;-64
2022/02/28 08:51:12;;;;;;;15.75;7.65;;;;;;;;;;5062430;28;20506;-63
2022/02/28 08:53:39;;;;;;;15.82;8.48;;;;;;;;;;5067585;28;20106;-64
2022/02/28 08:56:05;;;;;;;14.77;8.88;;;;;;;;;;5058517;28;20071;-63
2022/02/28 08:58:31;;;;;;;16.20;8.25;;;;;;;;;;5071610;28;20056;-65
2022/02/28 09:00:57;;;;;;;18.15;7.82;;;;;;;;;;5062662;28;20043;-63
2022/02/28 09:03:23;;;;;;;17.05;8.25;;;;;;;;;;5062622;28;20032;-63
2022/02/28 09:05:50;;;;;;;16.30;7.40;;;;;;;;;;5076924;28;20052;-63
2022/02/28 09:08:16;;;;;;;15.07;7.97;;;;;;;;;;5076129;28;20037;-63
2022/02/28 09:10:42;;;;;;;18.67;7.47;;;;;;;;;;5074223;28;20050;-64
2022/02/28 09:13:08;;;;;;;16.02;7.38;;;;;;;;;;5046273;28;20053;-63
2022/02/28 09:15:36;;;;;;;13.00;7.28;;;;;;;;;;5063151;28;20049;-63
2022/02/28 09:18:02;;;;;;;11.45;7.22;;;;;;;;;;5064557;28;20036;-63
2022/02/28 09:20:28;;;;;;;17.13;7.88;;;;;;;;;;5083895;28;20463;-64
2022/02/28 09:22:54;;;;;;;14.02;7.85;;;;;;;;;;5082533;28;20649;-63
2022/02/28 09:25:23;;;;;;;13.52;7.00;;;;;;;;;;5075832;28;20040;-64
2022/02/28 09:27:51;;;;;;;15.65;7.38;;;;;;;;;;5080707;28;20233;-63
2022/02/28 09:30:17;;;;;;;13.40;7.63;;;;;;;;;;5067740;28;20041;-64
2022/02/28 09:32:43;;;;;;;13.48;6.95;;;;;;;;;;5069133;28;20059;-64
2022/02/28 09:35:11;;;;;;;12.25;7.22;;;;;;;;;;5061388;28;20068;-64
2022/02/28 09:37:37;;;;;;;15.90;7.65;;;;;;;;;;5042570;28;20064;-64
2022/02/28 09:40:04;;;;;;;14.43;8.07;;;;;;;;;;5059916;28;20124;-64
2022/02/28 09:42:30;;;;;;;13.77;7.18;;;;;;;;;;5058333;28;20041;-63
2022/02/28 09:44:58;;;;;;;17.40;7.78;;;;;;;;;;5056975;28;20079;-64
2022/02/28 09:47:24;;;;;;;15.45;7.35;;;;;;;;;;5071872;28;20051;-64
2022/02/28 09:49:52;;;;;;;14.57;7.15;;;;;;;;;;5062735;28;20463;-63
2022/02/28 09:52:18;;;;;;;10.90;6.68;;;;;;;;;;5055868;28;20044;-64
2022/02/28 09:54:44;;;;;;;13.25;7.40;;;;;;;;;;5062166;28;20454;-64
2022/02/28 09:57:10;;;;;;;11.80;6.60;;;;;;;;;;5059940;28;20049;-63
2022/02/28 09:59:36;;;;;;;13.82;6.95;;;;;;;;;;5067261;28;20099;-64
2022/02/28 10:02:03;;;;;;;11.40;6.65;;;;;;;;;;5060604;28;20163;-64
2022/02/28 10:04:29;;;;;;;13.45;6.32;;;;;;;;;;5087466;28;20050;-64
2022/02/28 10:06:55;;;;;;;13.25;6.88;;;;;;;;;;5041929;28;20052;-64
2022/02/28 10:09:21;;;;;;;11.60;6.55;;;;;;;;;;5052619;28;20048;-64
2022/02/28 10:11:48;;;;;;;9.85;6.55;;;;;;;;;;5069157;28;20477;-64
2022/02/28 10:14:14;;;;;;;13.80;6.60;;;;;;;;;;5073198;28;20043;-64
2022/02/28 10:16:44;;;;;;;11.35;6.35;;;;;;;;;;5068992;28;20079;-64
2022/02/28 10:19:12;;;;;;;11.25;6.68;;;;;;;;;;5068816;28;20036;-64
2022/02/28 10:21:40;;;;;;;14.30;6.55;;;;;;;;;;5075359;28;21296;-70
2022/02/28 10:24:08;;;;;;;12.32;5.97;;;;;;;;;;5070693;28;20048;-64
2022/02/28 10:26:39;;;;;;;12.27;5.57;;;;;;;;;;5081123;28;20045;-64
2022/02/28 10:29:06;;;;;;;12.32;6.20;;;;;;;;;;5078779;28;20400;-63
2022/02/28 10:31:38;;;;;;;11.63;5.35;;;;;;;;;;5066837;28;20044;-64
2022/02/28 10:34:13;;;;;;;10.68;6.32;;;;;;;;;;5087320;28;20105;-64
2022/02/28 10:36:39;;;;;;;9.25;5.88;;;;;;;;;;5081917;28;20048;-64
2022/02/28 10:39:10;;;;;;;10.55;5.95;;;;;;;;;;5065110;28;20095;-64
2022/02/28 10:41:37;;;;;;;16.77;6.13;;;;;;;;;;5077271;28;20047;-63
2022/02/28 10:44:04;;;;;;;9.23;6.25;;;;;;;;;;5083060;28;20040;-64
2022/02/28 10:46:32;;;;;;;12.15;6.53;;;;;;;;;;5068929;28;20059;-64
2022/02/28 10:48:59;;;;;;;13.70;6.47;;;;;;;;;;5078880;28;20045;-64
2022/02/28 10:51:25;;;;;;;10.70;6.70;;;;;;;;;;5079920;28;20717;-64
2022/02/28 10:54:09;;;;;;;10.70;5.53;;;;;;;;;;5070100;28;20045;-64
2022/02/28 10:56:45;;;;;;;11.10;5.53;;;;;;;;;;5047646;28;20443;-64
2022/02/28 10:59:12;;;;;;;10.18;5.95;;;;;;;;;;5077967;28;20399;-64
2022/02/28 11:01:39;;;;;;;11.05;6.10;;;;;;;;;;5085344;28;20580;-64
2022/02/28 11:04:07;;;;;;;9.25;5.05;;;;;;;;;;5067851;28;20044;-64
2022/02/28 11:06:34;;;;;;;8.80;5.43;;;;;;;;;;5086579;28;20053;-69
2022/02/28 11:09:01;;;;;;;10.55;6.15;;;;;;;;;;5052649;28;20097;-65
2022/02/28 11:11:27;;;;;;;11.15;6.50;;;;;;;;;;5064831;28;20583;-66
2022/02/28 11:13:54;;;;;;;11.90;6.82;;;;;;;;;;5070731;28;20035;-66
2022/02/28 11:16:21;;;;;;;10.77;6.65;;;;;;;;;;5065154;28;20302;-66
2022/02/28 11:18:48;;;;;;;10.63;6.47;;;;;;;;;;5069296;28;20033;-66
2022/02/28 11:21:15;;;;;;;11.73;6.18;;;;;;;;;;5065925;28;20049;-66
2022/02/28 11:23:44;;;;;;;9.60;6.07;;;;;;;;;;5047050;28;20048;-66
2022/02/28 11:26:10;;;;;;;10.80;6.43;;;;;;;;;;5066671;28;20055;-66
2022/02/28 11:28:37;;;;;;;8.65;5.55;;;;;;;;;;5059223;28;20507;-65
2022/02/28 11:31:14;;;;;;;15.10;6.70;;;;;;;;;;5060213;28;20120;-65
2022/02/28 11:33:51;;;;;;;9.15;5.75;;;;;;;;;;5077233;28;20053;-65
2022/02/28 11:36:18;;;;;;;8.52;5.43;;;;;;;;;;5063570;28;20136;-66
2022/02/28 11:38:44;;;;;;;8.82;5.60;;;;;;;;;;5044911;28;20113;-66
2022/02/28 11:41:11;;;;;;;9.38;6.18;;;;;;;;;;5065549;28;21572;-65
2022/02/28 11:43:39;;;;;;;9.13;5.63;;;;;;;;;;5064311;28;20052;-66
2022/02/28 11:46:05;;;;;;;11.20;5.45;;;;;;;;;;5081113;28;20076;-66
2022/02/28 11:48:35;;;;;;;9.32;5.38;;;;;;;;;;5060962;28;20041;-65
2022/02/28 11:51:02;;;;;;;10.40;5.65;;;;;;;;;;5070987;28;20048;-66
2022/02/28 11:53:37;;;;;;;9.77;6.45;;;;;;;;;;5060364;28;20045;-65
2022/02/28 11:56:23;;;;;;;10.27;5.63;;;;;;;;;;5073916;28;20064;-65
2022/02/28 11:58:51;;;;;;;9.65;6.25;;;;;;;;;;5040303;28;20152;-66
2022/02/28 12:01:18;;;;;;;8.75;5.40;;;;;;;;;;5080290;28;20043;-65
2022/02/28 12:03:49;;;;;;;11.15;6.47;;;;;;;;;;5065503;28;20488;-66
2022/02/28 12:06:34;;;;;;;12.60;6.10;;;;;;;;;;5052103;28;20746;-68
2022/02/28 12:09:00;;;;;;;8.68;5.72;;;;;;;;;;5066973;28;20040;-71
2022/02/28 12:11:30;;;;;;;9.68;5.72;;;;;;;;;;5061444;28;20127;-63
2022/02/28 12:14:00;;;;;;;9.85;5.93;;;;;;;;;;5060344;28;20101;-64
2022/02/28 12:19:28;;;;;;;8.63;5.43;;;;;;;;;;5071933;28;20083;-65
2022/02/28 12:22:02;;;;;;;9.27;5.25;;;;;;;;;;5058992;28;20040;-65
2022/02/28 12:24:48;;;;;;;8.70;5.13;;;;;;;;;;5062594;28;20047;-64
2022/02/28 12:27:15;;;;;;;9.48;5.40;;;;;;;;;;5063685;28;20075;-63
2022/02/28 12:29:41;;;;;;;10.40;5.10;;;;;;;;;;5063715;28;20507;-65
2022/02/28 12:32:08;;;;;;;8.65;5.25;;;;;;;;;;5062425;28;20072;-64
2022/02/28 12:34:35;;;;;;;8.65;5.25;;;;;;;;;;5065025;28;20064;-65
2022/02/28 12:37:02;;;;;;;7.53;4.65;;;;;;;;;;5063053;28;20105;-65
2022/02/28 12:39:28;;;;;;;8.60;5.10;;;;;;;;;;5073744;28;20066;-65
2022/02/28 12:41:56;;;;;;;9.00;5.30;;;;;;;;;;5075422;28;20033;-65
2022/02/28 12:44:23;;;;;;;10.30;5.85;;;;;;;;;;5075739;28;20048;-65
2022/02/28 12:46:53;;;;;;;8.43;5.60;;;;;;;;;;5079195;28;20075;-65
2022/02/28 12:49:21;;;;;;;8.88;4.95;;;;;;;;;;5074587;28;20444;-65
2022/02/28 12:51:48;;;;;;;10.95;5.78;;;;;;;;;;5059000;28;20142;-66
2022/02/28 12:54:17;;;;;;;10.15;6.07;;;;;;;;;;5077954;28;20064;-65
2022/02/28 12:56:46;;;;;;;9.90;4.95;;;;;;;;;;5077015;28;20056;-65
2022/02/28 12:59:12;;;;;;;8.40;5.15;;;;;;;;;;5053452;28;20045;-65
2022/02/28 13:01:39;;;;;;;8.45;5.07;;;;;;;;;;5063557;28;20047;-64
2022/02/28 13:04:06;;;;;;;8.80;5.00;;;;;;;;;;5063675;28;20033;-65
2022/02/28 13:06:34;;;;;;;9.90;5.15;;;;;;;;;;5068869;28;20059;-65
2022/02/28 13:09:09;;;;;;;7.90;4.88;;;;;;;;;;5076432;28;20036;-65
2022/02/28 13:11:36;;;;;;;8.85;5.28;;;;;;;;;;5056821;28;20040;-64
2022/02/28 13:14:05;;;;;;;7.82;5.55;;;;;;;;;;5057584;28;20045;-65
2022/02/28 13:16:32;;;;;;;8.10;4.95;;;;;;;;;;5050564;28;20072;-64
2022/02/28 13:19:00;;;;;;;8.88;5.25;;;;;;;;;;5052114;28;20041;-66
2022/02/28 13:21:30;;;;;;;8.00;5.13;;;;;;;;;;5047838;28;20048;-65
2022/02/28 13:24:03;;;;;;;10.48;5.28;;;;;;;;;;5061554;28;20036;-66
2022/02/28 13:26:29;;;;;;;8.45;5.00;;;;;;;;;;5044546;28;20041;-66
2022/02/28 13:28:55;;;;;;;7.82;5.25;;;;;;;;;;5047065;28;20048;-65
2022/02/28 13:31:22;;;;;;;9.15;5.28;;;;;;;;;;5072931;28;20139;-65
2022/02/28 13:33:48;;;;;;;10.00;5.63;;;;;;;;;;5067520;28;20044;-65
2022/02/28 13:36:14;;;;;;;8.05;5.70;;;;;;;;;;5061721;28;20041;-65
2022/02/28 13:38:40;;;;;;;10.45;5.65;;;;;;;;;;5078074;28;20496;-65
2022/02/28 13:41:10;;;;;;;9.23;5.22;;;;;;;;;;5067719;28;20041;-65
2022/02/28 13:43:37;;;;;;;9.02;5.82;;;;;;;;;;5071364;28;20036;-65
2022/02/28 13:46:04;;;;;;;12.43;5.05;;;;;;;;;;5079118;28;20033;-65
2022/02/28 13:48:31;;;;;;;8.80;5.60;;;;;;;;;;5046688;28;20052;-65
2022/02/28 13:50:58;;;;;;;8.60;5.85;;;;;;;;;;5077296;28;20067;-66
2022/02/28 13:53:25;;;;;;;8.73;5.40;;;;;;;;;;5060987;28;20106;-65
2022/02/28 13:55:52;;;;;;;9.10;5.55;;;;;;;;;;5071124;28;20052;-65
2022/02/28 13:58:26;;;;;;;10.48;5.95;;;;;;;;;;5069221;28;20048;-65
2022/02/28 14:00:53;;;;;;;9.88;5.55;;;;;;;;;;5059452;28;20063;-65
2022/02/28 14:03:22;;;;;;;12.65;5.90;;;;;;;;;;5055284;28;20041;-65
2022/02/28 14:05:49;;;;;;;12.63;6.28;;;;;;;;;;5041224;28;20044;-65
2022/02/28 14:08:17;;;;;;;11.45;5.80;;;;;;;;;;5060818;28;20041;-65
2022/02/28 14:10:44;;;;;;;10.57;6.47;;;;;;;;;;5031878;28;20531;-65
2022/02/28 14:13:14;;;;;;;8.77;5.65;;;;;;;;;;5052545;28;20053;-65
2022/02/28 14:15:40;;;;;;;9.05;5.97;;;;;;;;;;5039401;28;20045;-65
2022/02/28 14:18:07;;;;;;;8.60;5.85;;;;;;;;;;5085091;28;20055;-65
2022/02/28 14:20:38;;;;;;;9.02;5.72;;;;;;;;;;5060701;28;20041;-65
2022/02/28 14:23:06;;;;;;;8.43;5.20;;;;;;;;;;5063656;28;20086;-65
2022/02/28 14:25:32;;;;;;;9.85;6.15;;;;;;;;;;5067895;28;20037;-66
2022/02/28 14:27:59;;;;;;;10.30;5.13;;;;;;;;;;5036985;28;20520;-65
2022/02/28 14:30:26;;;;;;;9.95;6.00;;;;;;;;;;5061393;28;20091;-65
2022/02/28 14:33:06;;;;;;;10.88;6.20;;;;;;;;;;5067132;28;20049;-65
2022/02/28 14:35:32;;;;;;;9.77;6.50;;;;;;;;;;5061323;28;20051;-65